Weather at Ted Stevens Anchorage International Airport

Public forecast

Using degrees Fahrenheit for public forecast. Weather courtesy of forecast.io.

Current aviation weather report (METAR) for Ted Stevens Anchorage International Airport

Retrieved 2021/07/23 20:53 UTC (59 minutes ago):

PANC 232053Z 16009G15KT 10SM FEW035 BKN055 BKN070 OVC140 16/09 A2988

Aviation forecast (TAF) for Ted Stevens Anchorage International Airport

Retrieved 2021/07/23 18:36 UTC (3 hours ago):

TAF COR PANC 231733Z 2318/2424 VRB05KT P6SM VCSH SCT040 BKN050 OVC120 TEMPO 2318/2320 BKN045 FM232200 16007KT P6SM VCSH SCT040 BKN070 FM240700 17009KT 5SM -RA BR SCT010 OVC040 FM242100 15007KT P6SM VCSH SCT015 OVC050